SAWG/RGL METAR and TAF weather

Enter ICAO airport designator
Station Type Date Time Source
SAWG METAR 2019/02/20 07:00 UTC NOAA

SAWG 200700Z 27030G40KT CAVOK 07/00 Q0982


Station Type Date Time Source
SAWG Decoded METAR 2019/02/20 07:00 UTC NOAA

Rio Gallegos Aerodrome, Argentina (SAWG) 51-37S 069-17W 19M
Feb 20, 2019 - 02:00 AM EST / 2019.02.20 0700 UTC
Wind: from the W (270 degrees) at 35 MPH (30 KT) gusting to 46 MPH (40 KT):0
Visibility: greater than 7 mile(s):0
Temperature: 44 F (7 C)
Dew Point: 32 F (0 C)
Relative Humidity: 60%
Pressure (altimeter): 29.00 in. Hg (0982 hPa)
ob: SAWG 200700Z 27030G40KT CAVOK 07/00 Q0982
cycle: 7

Station Type Date Time Source
SAWG TAF 2019/02/20 06:36 UTC NOAA

TAF SAWG 200500Z 2006/2106 27025G35KT 9999 SCT040 TX14/2019Z TN06/2010Z
TEMPO 2008/2012 28030G40KT 8000 SHRA BKN030
BECMG 2023/2102 25015KT


Example: see airport list